Time,TemperatureF,DewpointF,PressureIn,WindDirection,WindDirectionDegrees,WindSpeedMPH,WindSpeedGustMPH,Humidity,HourlyPrecipIn,Conditions,Clouds,dailyrainin,SoftwareType,DateUTC
2013-05-13 00:00:00,54.2,49.4,29.85,NW,315,0.0,0.0,84,0.00,,,0.00,WUHU216HW,2013-05-13 07:00:00,
2013-05-13 00:05:00,54.2,49.4,29.85,NW,315,0.0,0.0,84,0.00,,,0.00,WUHU216HW,2013-05-13 07:05:00,
2013-05-13 00:10:00,54.2,49.4,29.85,NW,315,0.0,0.0,84,0.00,,,0.00,WUHU216HW,2013-05-13 07:10:00,
2013-05-13 00:30:00,54.2,49.8,29.85,NW,315,0.0,0.0,85,0.00,,,0.00,WUHU216HW,2013-05-13 07:30:00,
2013-05-13 00:35:00,54.2,49.4,29.85,NW,315,0.0,0.0,84,0.00,,,0.00,WUHU216HW,2013-05-13 07:35:00,
2013-05-13 00:40:00,54.2,49.4,29.85,NW,315,0.0,0.0,84,0.00,,,0.00,WUHU216HW,2013-05-13 07:40:00,
2013-05-13 01:00:00,54.0,49.9,29.85,NW,315,0.4,0.4,86,0.00,,,0.00,WUHU216HW,2013-05-13 08:00:00,
2013-05-13 01:05:00,54.0,49.6,29.85,NW,315,0.4,0.4,85,0.00,,,0.00,WUHU216HW,2013-05-13 08:05:00,
2013-05-13 01:10:00,54.0,49.6,29.85,NW,315,0.4,0.4,85,0.00,,,0.00,WUHU216HW,2013-05-13 08:10:00,
2013-05-13 01:30:00,52.9,48.8,29.85,ESE,113,0.0,0.0,86,0.00,,,0.00,WUHU216HW,2013-05-13 08:30:00,
2013-05-13 01:35:00,52.9,48.8,29.85,ESE,113,0.0,0.0,86,0.00,,,0.00,WUHU216HW,2013-05-13 08:35:00,
2013-05-13 01:40:00,52.9,48.8,29.85,ESE,113,0.0,0.0,86,0.00,,,0.00,WUHU216HW,2013-05-13 08:40:00,
2013-05-13 02:00:00,53.6,50.1,29.84,ESE,113,0.9,0.9,88,0.00,,,0.00,WUHU216HW,2013-05-13 09:00:00,
2013-05-13 02:05:00,53.6,50.1,29.84,ESE,113,1.1,1.1,88,0.00,,,0.00,WUHU216HW,2013-05-13 09:05:00,
2013-05-13 02:10:00,53.6,50.1,29.84,ESE,113,1.1,1.1,88,0.00,,,0.00,WUHU216HW,2013-05-13 09:10:00,
2013-05-13 02:30:00,53.6,51.3,29.84,East,90,2.2,2.2,92,0.00,,,0.00,WUHU216HW,2013-05-13 09:30:00,
2013-05-13 02:35:00,53.6,51.3,29.84,East,90,2.5,2.5,92,0.00,,,0.00,WUHU216HW,2013-05-13 09:35:00,
2013-05-13 02:40:00,53.6,51.3,29.84,East,90,2.5,2.5,92,0.00,,,0.00,WUHU216HW,2013-05-13 09:40:00,
2013-05-13 03:00:00,54.2,51.3,29.84,SW,225,1.1,1.1,90,0.00,,,0.00,WUHU216HW,2013-05-13 10:00:00,
2013-05-13 03:05:00,54.2,51.3,29.84,SW,225,0.2,1.1,90,0.00,,,0.00,WUHU216HW,2013-05-13 10:05:00,
2013-05-13 03:10:00,54.2,51.3,29.84,SW,225,0.2,0.2,90,0.00,,,0.00,WUHU216HW,2013-05-13 10:10:00,
2013-05-13 03:30:00,54.4,51.5,29.84,SW,225,0.7,0.7,90,0.00,,,0.00,WUHU216HW,2013-05-13 10:30:00,
2013-05-13 03:35:00,54.4,51.5,29.84,SW,225,0.7,0.7,90,0.00,,,0.00,WUHU216HW,2013-05-13 10:35:00,
2013-05-13 03:40:00,54.4,51.5,29.84,SW,225,0.7,0.7,90,0.00,,,0.00,WUHU216HW,2013-05-13 10:40:00,
2013-05-13 04:00:00,54.4,51.5,29.84,SSW,203,0.7,0.7,90,0.00,,,0.00,WUHU216HW,2013-05-13 11:00:00,
2013-05-13 04:05:00,54.4,51.5,29.84,SSW,203,0.7,0.7,90,0.00,,,0.00,WUHU216HW,2013-05-13 11:05:00,
2013-05-13 04:10:00,54.4,51.5,29.84,SSW,203,0.7,0.7,90,0.00,,,0.00,WUHU216HW,2013-05-13 11:10:00,
2013-05-13 04:30:00,54.0,51.1,29.84,SE,135,2.5,2.5,90,0.00,,,0.00,WUHU216HW,2013-05-13 11:30:00,
2013-05-13 04:35:00,54.0,51.1,29.84,SE,135,2.0,2.5,90,0.00,,,0.00,WUHU216HW,2013-05-13 11:35:00,
2013-05-13 04:40:00,54.0,51.1,29.84,SE,135,2.0,2.5,90,0.00,,,0.00,WUHU216HW,2013-05-13 11:40:00,
2013-05-13 05:00:00,53.6,51.0,29.84,SE,135,1.8,1.8,91,0.00,,,0.00,WUHU216HW,2013-05-13 12:00:00,
2013-05-13 05:05:00,53.6,51.0,29.84,SE,135,2.0,2.0,91,0.00,,,0.00,WUHU216HW,2013-05-13 12:05:00,
2013-05-13 05:10:00,53.6,51.0,29.84,SE,135,2.0,2.0,91,0.00,,,0.00,WUHU216HW,2013-05-13 12:10:00,
2013-05-13 05:30:00,53.6,51.0,29.84,SE,135,5.4,5.4,91,0.00,,,0.00,WUHU216HW,2013-05-13 12:30:00,
2013-05-13 05:35:00,53.6,51.0,29.84,SE,135,4.9,5.4,91,0.00,,,0.00,WUHU216HW,2013-05-13 12:35:00,
2013-05-13 05:40:00,53.6,51.0,29.84,SE,135,4.9,5.4,91,0.00,,,0.00,WUHU216HW,2013-05-13 12:40:00,
2013-05-13 06:00:00,53.5,50.6,29.85,SE,135,2.7,2.7,90,0.00,,,0.00,WUHU216HW,2013-05-13 13:00:00,
2013-05-13 06:05:00,53.5,50.6,29.85,SE,135,2.5,2.7,90,0.00,,,0.00,WUHU216HW,2013-05-13 13:05:00,
2013-05-13 06:10:00,53.5,50.6,29.85,SE,135,2.5,2.5,90,0.00,,,0.00,WUHU216HW,2013-05-13 13:10:00,
2013-05-13 06:30:00,54.2,51.0,29.87,South,180,0.2,0.2,89,0.01,,,0.00,WUHU216HW,2013-05-13 13:30:00,
2013-05-13 06:35:00,54.2,51.0,29.87,South,180,0.2,0.2,89,0.01,,,0.01,WUHU216HW,2013-05-13 13:35:00,
2013-05-13 06:40:00,54.2,51.0,29.87,South,180,0.2,0.2,89,0.01,,,0.01,WUHU216HW,2013-05-13 13:40:00,
2013-05-13 07:00:00,54.7,51.5,29.88,SSW,203,0.9,0.9,89,0.01,,,0.01,WUHU216HW,2013-05-13 14:00:00,
2013-05-13 07:05:00,54.7,51.2,29.88,SSW,203,0.9,0.9,88,0.01,,,0.01,WUHU216HW,2013-05-13 14:05:00,
2013-05-13 07:10:00,54.7,51.2,29.88,SSW,203,0.9,0.9,88,0.01,,,0.01,WUHU216HW,2013-05-13 14:10:00,
2013-05-13 07:30:00,55.3,51.4,29.88,SE,135,0.4,0.4,87,0.00,,,0.01,WUHU216HW,2013-05-13 14:30:00,
2013-05-13 07:35:00,55.3,51.4,29.88,SE,135,0.4,0.4,87,0.00,,,0.01,WUHU216HW,2013-05-13 14:35:00,
2013-05-13 07:40:00,55.3,51.4,29.88,SE,135,0.4,0.4,87,0.00,,,0.01,WUHU216HW,2013-05-13 14:40:00,
2013-05-13 08:00:00,59.8,55.3,29.88,SE,135,1.6,1.6,85,0.00,,,0.01,WUHU216HW,2013-05-13 15:00:00,
2013-05-13 08:05:00,60.1,55.6,29.88,SE,135,2.5,2.5,85,0.00,,,0.01,WUHU216HW,2013-05-13 15:05:00,
2013-05-13 08:10:00,60.1,55.6,29.88,SE,135,2.5,2.5,85,0.00,,,0.01,WUHU216HW,2013-05-13 15:10:00,
2013-05-13 08:30:00,66.2,56.9,29.88,ESE,113,1.3,1.3,72,0.00,,,0.01,WUHU216HW,2013-05-13 15:30:00,
2013-05-13 08:35:00,66.2,56.9,29.88,ESE,113,1.3,1.6,72,0.00,,,0.01,WUHU216HW,2013-05-13 15:35:00,
2013-05-13 08:40:00,66.2,56.9,29.88,ESE,113,1.3,1.6,72,0.00,,,0.01,WUHU216HW,2013-05-13 15:40:00,
2013-05-13 09:00:00,69.7,58.6,29.89,SW,225,2.9,2.9,68,0.00,,,0.01,WUHU216HW,2013-05-13 16:00:00,
2013-05-13 09:05:00,69.8,58.8,29.89,SW,225,3.6,3.6,68,0.00,,,0.01,WUHU216HW,2013-05-13 16:05:00,
2013-05-13 09:10:00,69.8,58.8,29.89,SW,225,3.6,3.6,68,0.00,,,0.01,WUHU216HW,2013-05-13 16:10:00,
2013-05-13 09:30:00,72.5,59.2,29.90,WSW,248,3.4,3.4,63,0.00,,,0.01,WUHU216HW,2013-05-13 16:30:00,
2013-05-13 09:35:00,72.5,58.8,29.90,WSW,248,3.4,3.4,62,0.00,,,0.01,WUHU216HW,2013-05-13 16:35:00,
2013-05-13 09:40:00,72.5,58.8,29.90,WSW,248,3.4,3.4,62,0.00,,,0.01,WUHU216HW,2013-05-13 16:40:00,
2013-05-13 10:00:00,74.7,59.0,29.90,WNW,293,1.3,1.3,58,0.00,,,0.01,WUHU216HW,2013-05-13 17:00:00,
2013-05-13 10:05:00,74.7,59.0,29.90,WNW,293,1.3,1.3,58,0.00,,,0.01,WUHU216HW,2013-05-13 17:05:00,
2013-05-13 10:10:00,74.7,59.0,29.90,WNW,293,1.3,1.3,58,0.00,,,0.01,WUHU216HW,2013-05-13 17:10:00,
2013-05-13 10:30:00,76.9,58.4,29.89,ESE,113,3.4,3.4,53,0.00,,,0.01,WUHU216HW,2013-05-13 17:30:00,
2013-05-13 10:35:00,76.9,58.4,29.89,SW,225,3.4,4.9,53,0.00,,,0.01,WUHU216HW,2013-05-13 17:35:00,
2013-05-13 10:40:00,76.9,58.4,29.89,SW,225,3.4,4.9,53,0.00,,,0.01,WUHU216HW,2013-05-13 17:40:00,
2013-05-13 11:00:00,78.7,57.9,29.89,WNW,293,6.9,6.9,49,0.00,,,0.01,WUHU216HW,2013-05-13 18:00:00,
2013-05-13 11:05:00,78.5,57.8,29.89,WNW,293,5.4,6.9,49,0.00,,,0.01,WUHU216HW,2013-05-13 18:05:00,
2013-05-13 11:10:00,78.5,57.8,29.89,WNW,293,5.4,5.4,49,0.00,,,0.01,WUHU216HW,2013-05-13 18:10:00,
2013-05-13 11:30:00,74.2,55.9,29.89,West,270,9.4,9.4,53,0.00,,,0.01,WUHU216HW,2013-05-13 18:30:00,
2013-05-13 11:35:00,74.0,55.7,29.89,West,270,8.9,9.4,53,0.00,,,0.01,WUHU216HW,2013-05-13 18:35:00,
2013-05-13 11:40:00,74.0,55.7,29.89,West,270,8.9,8.9,53,0.00,,,0.01,WUHU216HW,2013-05-13 18:40:00,
2013-05-13 12:00:00,72.7,56.0,29.89,SW,225,3.6,3.6,56,0.00,,,0.01,WUHU216HW,2013-05-13 19:00:00,
2013-05-13 12:05:00,72.5,55.9,29.89,SW,225,2.5,3.6,56,0.00,,,0.01,WUHU216HW,2013-05-13 19:05:00,
2013-05-13 12:10:00,72.5,55.9,29.89,SW,225,2.5,3.6,56,0.00,,,0.01,WUHU216HW,2013-05-13 19:10:00,
2013-05-13 12:30:00,73.4,55.6,29.88,WSW,248,8.1,8.1,54,0.00,,,0.01,WUHU216HW,2013-05-13 19:30:00,
2013-05-13 12:35:00,73.4,55.6,29.88,WSW,248,8.1,8.1,54,0.00,,,0.01,WUHU216HW,2013-05-13 19:35:00,
2013-05-13 12:40:00,73.4,55.6,29.88,WSW,248,8.1,8.1,54,0.00,,,0.01,WUHU216HW,2013-05-13 19:40:00,
2013-05-13 13:00:00,74.9,56.6,29.87,NW,315,6.7,6.7,53,0.00,,,0.01,WUHU216HW,2013-05-13 20:00:00,
2013-05-13 13:05:00,74.9,56.6,29.87,WNW,293,9.2,9.2,53,0.00,,,0.01,WUHU216HW,2013-05-13 20:05:00,
2013-05-13 13:10:00,74.9,56.6,29.87,WNW,293,9.2,9.2,53,0.00,,,0.01,WUHU216HW,2013-05-13 20:10:00,
2013-05-13 13:30:00,74.5,56.3,29.86,West,270,8.5,8.5,53,0.00,,,0.01,WUHU216HW,2013-05-13 20:30:00,
2013-05-13 13:35:00,74.7,56.4,29.86,WSW,248,6.5,8.5,53,0.00,,,0.01,WUHU216HW,2013-05-13 20:35:00,
2013-05-13 13:40:00,74.7,56.4,29.86,WSW,248,6.5,6.5,53,0.00,,,0.01,WUHU216HW,2013-05-13 20:40:00,
2013-05-13 14:00:00,75.6,56.8,29.85,WSW,248,5.4,5.4,52,0.00,,,0.01,WUHU216HW,2013-05-13 21:00:00,
2013-05-13 14:05:00,75.6,57.2,29.85,WSW,248,1.1,5.4,53,0.00,,,0.01,WUHU216HW,2013-05-13 21:05:00,
2013-05-13 14:10:00,75.6,57.2,29.85,WSW,248,1.1,5.4,53,0.00,,,0.01,WUHU216HW,2013-05-13 21:10:00,
2013-05-13 14:30:00,74.7,56.4,29.84,West,270,7.8,7.8,53,0.00,,,0.01,WUHU216HW,2013-05-13 21:30:00,
2013-05-13 14:35:00,74.7,56.4,29.84,NW,315,6.5,7.8,53,0.00,,,0.01,WUHU216HW,2013-05-13 21:35:00,
2013-05-13 14:40:00,74.7,56.4,29.84,NW,315,6.5,7.8,53,0.00,,,0.01,WUHU216HW,2013-05-13 21:40:00,
2013-05-13 15:00:00,76.1,57.8,29.84,SSW,203,4.5,4.5,53,0.00,,,0.01,WUHU216HW,2013-05-13 22:00:00,
2013-05-13 15:05:00,76.1,58.2,29.84,NW,315,2.5,4.5,54,0.00,,,0.01,WUHU216HW,2013-05-13 22:05:00,
2013-05-13 15:10:00,76.1,58.2,29.84,NW,315,2.5,4.5,54,0.00,,,0.01,WUHU216HW,2013-05-13 22:10:00,
2013-05-13 15:30:00,75.6,57.8,29.83,West,270,4.7,4.7,54,0.00,,,0.01,WUHU216HW,2013-05-13 22:30:00,
2013-05-13 15:35:00,75.6,58.3,29.83,West,270,4.7,4.7,55,0.00,,,0.01,WUHU216HW,2013-05-13 22:35:00,
2013-05-13 15:40:00,75.6,58.3,29.83,West,270,4.7,4.7,55,0.00,,,0.01,WUHU216HW,2013-05-13 22:40:00,
2013-05-13 16:00:00,74.3,57.6,29.82,West,270,4.9,4.9,56,0.00,,,0.01,WUHU216HW,2013-05-13 23:00:00,
2013-05-13 16:05:00,74.2,56.9,29.82,West,270,5.6,5.6,55,0.00,,,0.01,WUHU216HW,2013-05-13 23:05:00,
2013-05-13 16:10:00,74.2,56.9,29.82,West,270,5.6,5.6,55,0.00,,,0.01,WUHU216HW,2013-05-13 23:10:00,
2013-05-13 16:30:00,72.7,57.1,29.82,WSW,248,7.6,7.6,58,0.00,,,0.01,WUHU216HW,2013-05-13 23:30:00,
2013-05-13 16:35:00,72.7,57.1,29.82,WSW,248,4.7,7.6,58,0.00,,,0.01,WUHU216HW,2013-05-13 23:35:00,
2013-05-13 16:40:00,72.7,57.1,29.82,WSW,248,4.7,4.7,58,0.00,,,0.01,WUHU216HW,2013-05-13 23:40:00,
2013-05-13 17:00:00,72.2,56.5,29.82,SW,225,8.5,8.5,58,0.00,,,0.01,WUHU216HW,2013-05-14 00:00:00,
2013-05-13 17:05:00,72.0,56.3,29.82,WSW,248,5.8,8.5,58,0.00,,,0.01,WUHU216HW,2013-05-14 00:05:00,
2013-05-13 17:10:00,72.0,56.3,29.82,WSW,248,5.8,8.5,58,0.00,,,0.01,WUHU216HW,2013-05-14 00:10:00,
2013-05-13 17:30:00,68.8,55.2,29.82,WSW,248,6.9,6.9,62,0.00,,,0.01,WUHU216HW,2013-05-14 00:30:00,
2013-05-13 17:35:00,68.8,55.2,29.82,SSW,203,3.4,6.9,62,0.00,,,0.01,WUHU216HW,2013-05-14 00:35:00,
2013-05-13 17:40:00,68.8,55.2,29.82,SSW,203,3.4,6.9,62,0.00,,,0.01,WUHU216HW,2013-05-14 00:40:00,
2013-05-13 18:00:00,68.0,54.9,29.82,SSW,203,4.7,4.7,63,0.00,,,0.01,WUHU216HW,2013-05-14 01:00:00,
2013-05-13 18:05:00,68.2,55.1,29.82,SSW,203,4.3,4.7,63,0.00,,,0.01,WUHU216HW,2013-05-14 01:05:00,
2013-05-13 18:10:00,68.2,55.1,29.82,SSW,203,4.3,4.7,63,0.00,,,0.01,WUHU216HW,2013-05-14 01:10:00,
2013-05-13 18:30:00,66.4,54.3,29.81,SSE,158,5.8,5.8,65,0.00,,,0.01,WUHU216HW,2013-05-14 01:30:00,
2013-05-13 18:35:00,66.2,54.1,29.81,SSE,158,5.8,5.8,65,0.00,,,0.01,WUHU216HW,2013-05-14 01:35:00,
2013-05-13 18:40:00,66.2,54.1,29.81,SSE,158,5.8,5.8,65,0.00,,,0.01,WUHU216HW,2013-05-14 01:40:00,
2013-05-13 19:00:00,62.5,52.6,29.81,South,180,3.6,3.6,70,0.00,,,0.01,WUHU216HW,2013-05-14 02:00:00,
2013-05-13 19:05:00,62.5,52.6,29.81,South,180,3.4,3.6,70,0.00,,,0.01,WUHU216HW,2013-05-14 02:05:00,
2013-05-13 19:10:00,62.5,52.6,29.81,South,180,3.4,3.4,70,0.00,,,0.01,WUHU216HW,2013-05-14 02:10:00,
2013-05-13 19:30:00,60.3,51.7,29.81,SSW,203,0.4,0.4,73,0.00,,,0.01,WUHU216HW,2013-05-14 02:30:00,
2013-05-13 19:35:00,60.3,51.7,29.81,South,180,2.5,2.5,73,0.00,,,0.01,WUHU216HW,2013-05-14 02:35:00,
2013-05-13 19:40:00,60.3,51.7,29.81,South,180,2.5,2.5,73,0.00,,,0.01,WUHU216HW,2013-05-14 02:40:00,
2013-05-13 20:00:00,58.7,51.5,29.81,ESE,113,6.3,6.3,77,0.00,,,0.01,WUHU216HW,2013-05-14 03:00:00,
2013-05-13 20:05:00,58.7,51.5,29.81,SE,135,4.7,6.3,77,0.00,,,0.01,WUHU216HW,2013-05-14 03:05:00,
2013-05-13 20:10:00,58.7,51.5,29.81,SE,135,4.7,5.6,77,0.00,,,0.01,WUHU216HW,2013-05-14 03:10:00,
2013-05-13 20:30:00,57.4,50.9,29.81,SSE,158,4.3,4.3,79,0.00,,,0.01,WUHU216HW,2013-05-14 03:30:00,
2013-05-13 20:35:00,57.4,50.6,29.81,SSE,158,5.4,5.4,78,0.00,,,0.01,WUHU216HW,2013-05-14 03:35:00,
2013-05-13 20:40:00,57.4,50.6,29.81,SSE,158,5.4,5.4,78,0.00,,,0.01,WUHU216HW,2013-05-14 03:40:00,
2013-05-13 21:00:00,56.3,50.2,29.82,SE,135,3.6,3.6,80,0.00,,,0.01,WUHU216HW,2013-05-14 04:00:00,
2013-05-13 21:01:00,56.3,50.2,29.82,SE,135,1.3,3.6,80,0.00,,,0.01,WUHU216HW,2013-05-14 04:01:00,
2013-05-13 21:06:00,56.3,50.2,29.82,SE,135,1.3,3.6,80,0.00,,,0.01,WUHU216HW,2013-05-14 04:06:00,
2013-05-13 21:30:00,55.8,50.1,29.82,SSW,203,3.6,3.6,81,0.00,,,0.01,WUHU216HW,2013-05-14 04:30:00,
2013-05-13 21:35:00,55.8,50.1,29.82,South,180,2.7,3.6,81,0.00,,,0.01,WUHU216HW,2013-05-14 04:35:00,
2013-05-13 21:40:00,55.8,50.1,29.82,South,180,2.7,2.7,81,0.00,,,0.01,WUHU216HW,2013-05-14 04:40:00,
2013-05-13 22:00:00,55.6,49.9,29.83,ESE,113,5.4,5.4,81,0.00,,,0.01,WUHU216HW,2013-05-14 05:00:00,
2013-05-13 22:05:00,55.6,49.9,29.83,SSW,203,2.0,5.4,81,0.00,,,0.01,WUHU216HW,2013-05-14 05:05:00,
2013-05-13 22:10:00,55.6,49.9,29.83,SSW,203,2.0,5.4,81,0.00,,,0.01,WUHU216HW,2013-05-14 05:10:00,
2013-05-13 22:30:00,55.6,50.1,29.82,South,180,4.0,4.0,82,0.00,,,0.01,WUHU216HW,2013-05-14 05:30:00,
2013-05-13 22:35:00,55.6,50.1,29.82,SSE,158,2.7,4.3,82,0.00,,,0.01,WUHU216HW,2013-05-14 05:35:00,
2013-05-13 22:40:00,55.6,50.1,29.82,SSE,158,2.7,4.3,82,0.00,,,0.01,WUHU216HW,2013-05-14 05:40:00,
2013-05-13 23:00:00,55.6,50.1,29.81,SSE,158,2.7,2.7,82,0.00,,,0.01,WUHU216HW,2013-05-14 06:00:00,
2013-05-13 23:05:00,55.6,50.1,29.81,South,180,0.9,2.7,82,0.00,,,0.01,WUHU216HW,2013-05-14 06:05:00,
2013-05-13 23:10:00,55.6,50.1,29.81,South,180,0.9,2.7,82,0.00,,,0.01,WUHU216HW,2013-05-14 06:10:00,
2013-05-13 23:30:00,55.8,50.1,29.80,SSW,203,1.1,1.1,81,0.00,,,0.01,WUHU216HW,2013-05-14 06:30:00,
2013-05-13 23:35:00,55.8,50.1,29.80,SSW,203,1.1,1.1,81,0.00,,,0.01,WUHU216HW,2013-05-14 06:35:00,
2013-05-13 23:40:00,55.8,50.1,29.80,SSW,203,1.1,1.1,81,0.00,,,0.01,WUHU216HW,2013-05-14 06:40:00,